메인 페이지
METAR-TAF:

METAR-TAF

공항 :

암만, 요르단

위도: 31-59N, 경도: 035-59E, 고도: 767m

현재 날씨관측

예보는 39분 전, 09:00시(UTC)에 발표되었습니다.
남서11kt
온도 11°C
습도 71%
기압 1014 hPa
시정: 5000m
고도 3000ft 상공 구름 보통
고도 3500ft 상공 구름 많음
연무

METAR: OJAM 180900Z 23011KT 5000 HZ SCT030 BKN035 11/06 Q1014 NOSIG

시각: 11:39 (09:39 UTC)

예보

예보는 4 시간 39분 전, 05:00시(UTC)에 발표되었습니다.
예보 대상 시간: 18일 06시부터 19일 12시까지 (UTC)
남서12kt
시정: 5000m
고도 2500ft 상공 구름 보통
고도 3000ft 상공 구름 보통
박무
일시적
18일 12시부터 18일 16시까지 (UTC)
서남서16kt, 순간 최대 풍속 26kt
시정: 3000m
날린먼지
전환 중
18일 16시부터 18일 18시까지 (UTC)
20kt, 순간 최대 풍속 30kt
시정: 3000m
고도 2500ft 상공 구름 보통
고도 3000ft 상공 구름 많음
일시적
18일 19시부터 18일 24시까지 (UTC)
고도 2000ft 상공 구름 보통, 적란운.
고도 2500ft 상공 구름 많음
뇌우, 비

TAF: OJAM 180500Z 1806/1912 23012KT 5000 BR SCT025 SCT030 TEMPO 1812/1816 25016G26KT 3000 BLDU BECMG 1816/1818 27020G30KT 3000 RA SCT025 BKN030 TEMPO 1819/1824 TSRA SCT020CB BKN025

4,000개 이상의 공항 관측 자료 및 예보 (METAR 및 TAF 보고).

지도상에서 검색 가능한 기상관측소가 노란 점과 빨간 점으로 표시되어 있습니다.

기상관측소 명을 보려면 표시 위로 마우스를 이동하세요.

날씨 관측과 예보를 보려면 클릭하세요.

지도 변경 : 확대하려면 엑스 표시가 있는 녹색 버튼, 축소하려면 빼기 표시가 있는 녹색 버튼, 다음 페이지의 지도를 보려면 녹색 화살표를 클릭하세요.


METAR-TAF: